• Join FlightAware (Why Join?)
  • Login
  • US Flag 
Rudolph Flight #1: Scheduled 
09:03PM EST


 

Airport Tracker/Info


-or-


 

Live Flight TrackerFlight Track Log ✈ SWA2005 ✈ 19-Apr-2013 ✈ KSLC - KSEA

Flight Track Log - Related Links

Times and Time Zones

All times are in EDT time to prevent confusion due to time zone crossing. See the SWA2005 flight status page for this flight to view local times or setup timezone preferences in your user account.

Time Position Orientation Groundspeed Altitude Reporting Facility
EDT Latitude Longitude Course Direction KTS MPH feet Rate Location/Type
12:27PM 40.7525 -112.0769 249° West 224 258 7,800  Level Salt Lake Center
12:28PM 40.7711 -112.1311 294° West 243 280 9,900 2,700 Climbing Salt Lake Center
12:29PM 40.8314 -112.1978 320° Northwest 292 336 12,500 2,400 Climbing Salt Lake Center
12:30PM 40.8956 -112.2553 326° Northwest 279 321 14,900 1,800 Climbing Salt Lake Center
12:31PM 40.9656 -112.3442 316° Northwest 348 400 16,300 1,620 Climbing Salt Lake Center
12:32PM 41.0394 -112.4369 317° Northwest 363 418 18,300 1,980 Climbing Salt Lake Center
12:33PM 41.1147 -112.5325 316° Northwest 374 430 20,500 2,040 Climbing Salt Lake Center
12:34PM 41.2072 -112.6503 316° Northwest 385 443 22,600 1,980 Climbing Salt Lake Center
12:35PM 41.2869 -112.7514 316° Northwest 394 453 24,600 1,680 Climbing Salt Lake Center
12:36PM 41.3675 -112.8533 316° Northwest 397 457 26,100 1,680 Climbing Salt Lake Center
12:37PM 41.4464 -112.9561 316° Northwest 395 455 28,100 2,040 Climbing Salt Lake Center
12:38PM 41.5225 -113.0539 316° Northwest 385 443 30,400 1,860 Climbing Salt Lake Center
12:39PM 41.5956 -113.1486 316° Northwest 371 427 32,000 1,680 Climbing Salt Lake Center
12:40PM 41.6675 -113.2381 317° Northwest 357 411 33,900 960 Climbing Salt Lake Center
12:41PM 41.7492 -113.3458 315° West 345 397 34,000  Climbing Salt Lake Center
12:42PM 41.8203 -113.4400 315° West 355 409 34,000  Level Salt Lake Center
12:43PM 41.8911 -113.5325 316° Northwest 357 411 34,000  Level Salt Lake Center
12:44PM 41.9625 -113.6244 316° Northwest 356 410 34,000  Level Salt Lake Center
12:45PM 42.0325 -113.7175 315° West 357 411 34,000  Level Salt Lake Center
12:46PM 42.1047 -113.8119 316° Northwest 360 414 34,000  Level Salt Lake Center
12:47PM 42.1769 -113.9044 317° Northwest 360 414 34,000  Level Salt Lake Center
12:48PM 42.2494 -113.9969 317° Northwest 359 413 34,000  Level Salt Lake Center
12:49PM 42.3317 -114.1119 314° West 356 410 34,000  Level Salt Lake Center
12:50PM 42.4025 -114.2097 314° West 364 419 34,000  Level Salt Lake Center
12:51PM 42.4714 -114.3031 315° West 351 404 34,000  Level Salt Lake Center
12:52PM 42.5417 -114.4000 315° West 357 411 34,000  Level Salt Lake Center
12:53PM 42.6125 -114.4944 316° Northwest 355 409 34,000  Level Salt Lake Center
12:54PM 42.6928 -114.6019 315° West 355 409 34,000  Level Salt Lake Center
12:55PM 42.7594 -114.6933 315° West 356 410 34,000  Level Salt Lake Center
12:56PM 42.8261 -114.7856 315° West 355 409 34,000  Level Salt Lake Center
12:57PM 42.9047 -114.8928 315° West 357 411 34,000  Level Salt Lake Center
12:58PM 42.9717 -114.9853 315° West 359 413 34,000  Level Salt Lake Center
12:59PM 43.0497 -115.0919 315° West 355 409 34,000  Level Salt Lake Center
01:01PM 43.1164 -115.1836 315° West 355 409 34,000  Level Salt Lake Center
01:02PM 43.1825 -115.2778 314° West 357 411 34,000  Level Salt Lake Center
01:03PM 43.2606 -115.3864 315° West 357 411 34,000  Level Salt Lake Center
01:04PM 43.3275 -115.4792 315° West 356 410 34,000  Level Salt Lake Center
01:05PM 43.4053 -115.5900 314° West 358 412 34,000  Level Salt Lake Center
01:06PM 43.4725 -115.6836 315° West 359 413 34,000  Level Salt Lake Center
01:07PM 43.5392 -115.7783 314° West 359 413 34,000  Level Salt Lake Center
01:08PM 43.6175 -115.8889 314° West 359 413 34,000  Level Salt Lake Center
01:09PM 43.6839 -115.9842 314° West 359 413 34,000  Level Salt Lake Center
01:10PM 43.7611 -116.0942 314° West 356 410 34,000  Level Salt Lake Center
01:11PM 43.8278 -116.1897 314° West 358 412 34,000  Level Salt Lake Center
01:12PM 43.8956 -116.2875 314° West 363 418 34,000  Level Salt Lake Center
01:13PM 43.9739 -116.4003 314° West 362 417 34,000  Level Salt Lake Center
01:14PM 44.0422 -116.4994 314° West 368 423 34,000  Level Salt Lake Center
01:15PM 44.1211 -116.6147 314° West 366 421 34,000  Level Salt Lake Center
01:16PM 44.1883 -116.7139 313° West 365 420 34,000  Level Salt Lake Center
01:17PM 44.2572 -116.8139 314° West 369 425 34,000  Level Salt Lake Center
01:18PM 44.3361 -116.9303 313° West 368 423 34,000  Level Salt Lake Center
01:19PM 44.4050 -117.0328 313° West 373 429 34,000  Level Salt Lake Center
01:20PM 44.4858 -117.1508 314° West 374 430 34,000  Level Salt Lake Center
01:21PM 44.5547 -117.2539 313° West 377 434 34,000  Level Salt Lake Center
01:22PM 44.6231 -117.3581 313° West 378 435 34,000  Level Salt Lake Center
01:23PM 44.7047 -117.4797 313° West 381 438 34,000  Level Salt Lake Center
01:24PM 44.7747 -117.5853 313° West 383 441 34,000  Level Salt Lake Center
01:25PM 44.8569 -117.7103 313° West 388 447 34,000  Level Salt Lake Center
01:26PM 44.9269 -117.8172 313° West 387 445 34,000  Level Salt Lake Center
01:27PM 44.9972 -117.9247 313° West 386 444 34,000  Level Seattle Center
01:28PM 45.0664 -118.0308 313° West 382 440 34,000  Level Seattle Center
01:29PM 45.1364 -118.1372 313° West 385 443 34,000  Level Seattle Center
01:30PM 45.2128 -118.2578 312° West 380 437 34,000  Level Seattle Center
01:31PM 45.2842 -118.3683 313° West 380 437 34,000  Level Seattle Center
01:32PM 45.3556 -118.4789 313° West 382 440 34,000  Level Seattle Center
01:33PM 45.4261 -118.5908 312° West 381 438 34,000  Level Seattle Center
01:34PM 45.4981 -118.7028 313° West 384 442 34,000  Level Seattle Center
01:35PM 45.5689 -118.8158 312° West 384 442 34,000  Level Seattle Center
01:36PM 45.6397 -118.9258 313° West 380 437 34,000  Level Seattle Center
01:37PM 45.7089 -119.0386 311° West 382 440 34,000  Level Seattle Center
01:38PM 45.7939 -119.1725 312° West 380 437 34,000  Level Seattle Center
01:39PM 45.8639 -119.2856 312° West 381 438 34,000  Level Seattle Center
01:40PM 45.9344 -119.4014 311° West 387 445 34,000  Level Seattle Center
01:41PM 46.0067 -119.5164 312° West 391 450 34,000  Level Seattle Center
01:42PM 46.0761 -119.6308 311° West 385 443 34,000  Level Seattle Center
01:43PM 46.1475 -119.7458 312° West 385 443 34,000  Level Seattle Center
01:44PM 46.2181 -119.8633 311° West 390 449 34,000  Level Seattle Center
01:45PM 46.2900 -119.9808 312° West 392 451 34,000  Level Seattle Center
01:46PM 46.3611 -120.0986 311° West 391 450 34,000  Level Seattle Center
01:47PM 46.4328 -120.2167 311° West 392 451 34,000  Level Seattle Center
01:48PM 46.5044 -120.3361 311° West 395 455 34,000  Level Seattle Center
01:49PM 46.5867 -120.4833 309° West 393 452 34,000  Level Seattle Center
01:50PM 46.6494 -120.6128 305° West 394 453 34,000  Level Seattle Center
01:51PM 46.7111 -120.7442 304° West 394 453 34,000 -840 Level Seattle Center
01:52PM 46.7733 -120.8753 305° West 394 453 32,400 -2,100 Descending Seattle Center
01:54PM 46.8364 -121.0086 305° West 398 458 29,800 -2,460 Descending Seattle Center
01:55PM 46.8964 -121.1369 304° West 384 442 27,500 -2,400 Descending Seattle Center
01:56PM 46.9581 -121.2669 305° West 388 447 25,000 -2,400 Descending Seattle Center
01:57PM 47.0169 -121.3958 304° West 381 438 22,700 -2,460 Descending Seattle Center
01:57PM 47.0628 -121.4908 305° West 363 418 20,900 -2,460 Descending Seattle Center
01:58PM 47.0956 -121.5639 303° West 353 406 19,600 -1,980 Descending Seattle Center
01:59PM 47.1278 -121.6358 303° West 351 404 18,200 -2,100 Descending Seattle Center
01:59PM 47.1503 -121.6803 307° West 341 392 17,500 -2,400 Descending Seattle Center
02:00PM 47.2025 -121.7947 304° West 337 388 15,200 -1,440 Descending Seattle Center
02:01PM 47.2317 -121.8603 303° West 329 379 15,000 -120 Descending Seattle Center
02:01PM 47.2506 -121.9022 304° West 320 368 15,100 -720 Climbing Seattle Center
02:02PM 47.2803 -121.9669 304° West 319 367 14,300 -1,620 Descending Seattle Center
02:03PM 47.3386 -122.0944 304° West 315 362 12,300 -1,560 Descending Seattle Center
02:04PM 47.3875 -122.1844 309° West 296 341 11,200 -1,380 Descending Seattle Center
02:05PM 47.4661 -122.1800 North 286 329 9,600 -1,680 Descending Seattle Center
02:06PM 47.5497 -122.1708 North 284 327 7,900 -1,440 Descending Seattle Center
02:07PM 47.6203 -122.1628 North 253 291 6,800 -1,140 Descending Seattle Center
02:07PM 47.6350 -122.1603 North 236 272 6,500 -1,500 Descending Seattle Center
02:08PM 47.6892 -122.1517 North 233 268 5,300 -840 Descending Seattle Center
02:09PM 47.7500 -122.1597 355° North 230 265 5,100 -180 Descending Seattle Center
02:10PM 47.7403 -122.2458 261° West 219 252 5,000 -480 Descending Seattle Center
02:11PM 47.7069 -122.3039 230° Southwest 192 221 4,200 -480 Descending Seattle Center
02:12PM 47.6567 -122.3178 191° South 181 208 4,100 -540 Descending Seattle Center
02:13PM 47.5994 -122.3181 180° South 177 204 3,100 -900 Descending Seattle Center
02:14PM 47.5528 -122.3178 180° South 167 192 2,200 -840 Descending Seattle Center
02:15PM 47.5194 -122.3175 180° South 151 174 1,600 -720 Descending Seattle Center
02:16PM 47.4794 -122.3186 181° South 117 135 800 -600 Descending Seattle Center
02:17PM 47.4483 -122.3189 180° South 127 146 500 -360 Descending Seattle Center
02:19PM 47.4499 -122.3118 161° South  Level Estimated